Time;durP1;ratioP1;P1;durP2;ratioP2;P2;SDS_P1;SDS_P2;PMS_P1;PMS_P2;Temp;Humidity;BMP_temperature;BMP_pressure;BME280_temperature;BME280_humidity;BME280_pressure;Samples;Min_cycle;Max_cycle;Signal;HPM_P1;HPM_P2
2022/12/02 00:02:20;;;;;;;;;;;23.10;96.30;;;;;;5066246;28;19916;-70
2022/12/02 00:04:48;;;;;;;;;;;23.10;96.20;;;;;;5064513;28;19917;-70
2022/12/02 00:07:18;;;;;;;;;;;23.10;96.10;;;;;;5069061;28;19912;-70
2022/12/02 00:09:45;;;;;;;;;;;23.50;95.70;;;;;;5067520;28;19920;-69
2022/12/02 00:12:25;;;;;;;;;;;23.90;95.30;;;;;;5072917;28;20003;-69
2022/12/02 00:15:02;;;;;;;;;;;23.90;94.90;;;;;;5072352;28;20007;-70
2022/12/02 00:17:29;;;;;;;;;;;23.90;94.50;;;;;;5070332;28;19973;-70
2022/12/02 00:19:55;;;;;;;;;;;23.90;94.80;;;;;;5072428;28;19927;-70
2022/12/02 00:22:22;;;;;;;;;;;23.90;94.30;;;;;;5065827;28;19975;-70
2022/12/02 00:24:49;;;;;;;;;;;24.10;93.20;;;;;;5074921;28;20377;-71
2022/12/02 00:27:15;;;;;;;;;;;24.20;91.90;;;;;;5073742;28;19920;-70
2022/12/02 00:29:42;;;;;;;;;;;24.20;91.70;;;;;;5071655;28;19965;-71
2022/12/02 00:32:09;;;;;;;;;;;24.10;91.70;;;;;;5068931;28;19923;-72
2022/12/02 00:34:35;;;;;;;;;;;24.10;91.90;;;;;;5073217;28;19932;-70
2022/12/02 00:37:02;;;;;;;;;;;23.90;92.30;;;;;;5067056;28;19966;-70
2022/12/02 00:39:28;;;;;;;;;;;23.80;91.90;;;;;;5070454;28;19943;-69
2022/12/02 00:41:55;;;;;;;;;;;23.70;92.20;;;;;;5065399;28;19935;-71
2022/12/02 00:47:09;;;;;;;;;;;24.00;92.10;;;;;;5070014;28;20274;-71
2022/12/02 00:49:36;;;;;;;;;;;24.20;91.20;;;;;;5070215;28;20380;-71
2022/12/02 00:52:03;;;;;;;;;;;24.30;91.00;;;;;;5071311;28;20362;-70
2022/12/02 00:54:29;;;;;;;;;;;24.20;90.40;;;;;;5074045;28;19916;-70
2022/12/02 00:56:56;;;;;;;;;;;24.10;90.90;;;;;;5067760;28;19920;-69
2022/12/02 00:59:23;;;;;;;;;;;24.10;90.90;;;;;;5069021;28;19920;-69
2022/12/02 01:01:49;;;;;;;;;;;23.90;91.20;;;;;;5072166;28;19931;-70
2022/12/02 01:04:16;;;;;;;;;;;23.80;91.50;;;;;;5072056;28;19912;-70
2022/12/02 01:06:43;;;;;;;;;;;23.80;91.60;;;;;;5065136;28;20031;-70
2022/12/02 01:09:09;;;;;;;;;;;23.90;91.50;;;;;;5070119;28;20127;-71
2022/12/02 01:11:36;;;;;;;;;;;24.10;91.10;;;;;;5065802;28;20346;-69
2022/12/02 01:14:03;;;;;;;;;;;24.10;91.20;;;;;;5071575;28;19912;-70
2022/12/02 01:16:29;;;;;;;;;;;24.10;91.20;;;;;;5071936;28;19916;-71
2022/12/02 01:18:56;;;;;;;;;;;24.00;91.20;;;;;;5071944;28;19970;-69
2022/12/02 01:21:23;;;;;;;;;;;23.90;90.90;;;;;;5072669;28;19912;-70
2022/12/02 01:23:49;;;;;;;;;;;23.80;90.70;;;;;;5070572;28;20503;-70
2022/12/02 01:26:17;;;;;;;;;;;23.90;90.80;;;;;;5062010;28;19921;-70
2022/12/02 01:28:43;;;;;;;;;;;24.00;90.50;;;;;;5068239;28;19924;-70
2022/12/02 01:31:10;;;;;;;;;;;24.10;90.30;;;;;;5069946;28;20058;-71
2022/12/02 01:33:37;;;;;;;;;;;24.10;89.50;;;;;;5070547;28;19924;-73
2022/12/02 01:36:03;;;;;;;;;;;24.10;89.10;;;;;;5068750;28;19912;-72
2022/12/02 01:38:30;;;;;;;;;;;24.20;88.00;;;;;;5070571;28;19920;-71
2022/12/02 01:40:57;;;;;;;;;;;24.40;87.70;;;;;;5066498;28;20101;-70
2022/12/02 01:43:24;;;;;;;;;;;24.60;87.60;;;;;;5065668;28;19923;-69
2022/12/02 01:45:51;;;;;;;;;;;24.70;87.50;;;;;;5069708;28;20453;-69
2022/12/02 01:48:17;;;;;;;;;;;24.80;87.20;;;;;;5071711;28;19923;-69
2022/12/02 01:50:44;;;;;;;;;;;24.80;88.10;;;;;;5066002;28;19920;-70
2022/12/02 01:53:11;;;;;;;;;;;24.90;87.60;;;;;;5059177;28;19920;-71
2022/12/02 01:55:38;;;;;;;;;;;24.90;87.60;;;;;;5054760;28;19919;-70
2022/12/02 01:58:04;;;;;;;;;;;24.90;88.50;;;;;;5063845;28;19947;-71
2022/12/02 02:00:31;;;;;;;;;;;24.80;86.50;;;;;;5072612;28;19958;-69
2022/12/02 02:02:58;;;;;;;;;;;24.80;86.90;;;;;;5068305;28;19940;-70
2022/12/02 02:05:29;;;;;;;;;;;24.70;86.60;;;;;;5070787;28;19958;-70
2022/12/02 02:08:03;;;;;;;;;;;24.70;86.90;;;;;;5068432;28;20561;-70
2022/12/02 02:10:29;;;;;;;;;;;24.90;87.60;;;;;;5064615;28;20489;-69
2022/12/02 02:12:57;;;;;;;;;;;25.10;88.30;;;;;;5055181;28;19924;-70
2022/12/02 02:15:23;;;;;;;;;;;25.30;89.00;;;;;;5069845;28;19923;-72
2022/12/02 02:17:50;;;;;;;;;;;25.50;88.80;;;;;;5070327;28;20286;-70
2022/12/02 02:20:19;;;;;;;;;;;25.60;88.30;;;;;;5063445;28;20291;-69
2022/12/02 02:23:05;;;;;;;;;;;25.70;88.20;;;;;;5072218;28;19923;-71
2022/12/02 02:25:33;;;;;;;;;;;25.70;88.30;;;;;;5060877;28;20010;-71
2022/12/02 02:28:01;;;;;;;;;;;25.70;87.60;;;;;;5064845;28;19920;-70
2022/12/02 02:30:28;;;;;;;;;;;25.70;88.30;;;;;;5060986;28;19969;-70
2022/12/02 02:32:55;;;;;;;;;;;25.70;88.60;;;;;;5070773;28;20350;-70
2022/12/02 02:35:22;;;;;;;;;;;25.60;88.50;;;;;;5069546;28;19966;-70
2022/12/02 02:37:50;;;;;;;;;;;25.60;87.80;;;;;;5067438;28;20418;-70
2022/12/02 02:40:17;;;;;;;;;;;25.50;87.20;;;;;;5071337;28;19923;-71
2022/12/02 02:42:45;;;;;;;;;;;25.40;87.30;;;;;;5077116;28;19920;-70
2022/12/02 02:45:11;;;;;;;;;;;25.20;86.30;;;;;;5077576;28;19920;-71
2022/12/02 02:47:38;;;;;;;;;;;25.00;87.00;;;;;;5068087;28;20004;-69
2022/12/02 02:50:06;;;;;;;;;;;24.90;88.50;;;;;;5066702;28;19912;-70
2022/12/02 02:52:33;;;;;;;;;;;24.80;88.70;;;;;;5069452;28;19966;-69
2022/12/02 02:54:59;;;;;;;;;;;24.80;88.90;;;;;;5066783;28;19913;-71
2022/12/02 02:57:27;;;;;;;;;;;24.80;88.90;;;;;;5069180;28;19978;-70
2022/12/02 02:59:55;;;;;;;;;;;25.10;87.70;;;;;;5070639;28;19920;-71
2022/12/02 03:02:23;;;;;;;;;;;25.30;88.10;;;;;;5065489;28;20007;-71
2022/12/02 03:04:50;;;;;;;;;;;25.30;88.40;;;;;;5069614;28;19963;-70
2022/12/02 03:07:18;;;;;;;;;;;25.20;89.00;;;;;;5070650;28;19919;-71
2022/12/02 03:09:45;;;;;;;;;;;25.10;89.40;;;;;;5070783;28;19916;-71
2022/12/02 03:12:11;;;;;;;;;;;25.10;90.10;;;;;;5064674;28;19921;-69
2022/12/02 03:14:38;;;;;;;;;;;25.20;90.40;;;;;;5060719;28;19921;-71
2022/12/02 03:17:05;;;;;;;;;;;25.30;90.00;;;;;;5065386;28;19916;-69
2022/12/02 03:19:33;;;;;;;;;;;25.90;89.60;;;;;;5064869;28;19921;-71
2022/12/02 03:22:00;;;;;;;;;;;26.60;87.70;;;;;;5062457;28;20007;-71
2022/12/02 03:24:29;;;;;;;;;;;27.20;88.60;;;;;;5068567;28;19912;-72
2022/12/02 03:26:55;;;;;;;;;;;27.50;87.20;;;;;;5067708;28;19962;-72
2022/12/02 03:29:22;;;;;;;;;;;27.20;87.10;;;;;;5070655;28;19912;-70
2022/12/02 03:31:49;;;;;;;;;;;27.20;87.90;;;;;;5067946;28;19969;-69
2022/12/02 03:34:16;;;;;;;;;;;26.90;87.50;;;;;;5069743;28;19916;-70
2022/12/02 03:36:43;;;;;;;;;;;26.80;87.60;;;;;;5067135;28;19912;-70
2022/12/02 03:39:09;;;;;;;;;;;26.60;88.30;;;;;;5053887;28;19978;-70
2022/12/02 03:41:37;;;;;;;;;;;26.30;89.30;;;;;;5068010;28;19916;-70
2022/12/02 03:44:03;;;;;;;;;;;26.10;89.20;;;;;;5068741;28;19938;-70
2022/12/02 03:46:32;;;;;;;;;;;25.90;88.70;;;;;;5068619;28;19916;-69
2022/12/02 03:48:59;;;;;;;;;;;25.60;89.40;;;;;;5063473;28;20393;-69
2022/12/02 03:51:26;;;;;;;;;;;25.40;90.00;;;;;;5067620;28;20011;-70
2022/12/02 03:53:53;;;;;;;;;;;25.20;90.70;;;;;;5063742;28;20356;-71
2022/12/02 03:56:19;;;;;;;;;;;25.00;91.00;;;;;;5068924;28;19923;-70
2022/12/02 03:58:47;;;;;;;;;;;24.80;91.00;;;;;;5066988;28;19916;-71
2022/12/02 04:01:14;;;;;;;;;;;24.70;91.00;;;;;;5067882;28;20390;-71
2022/12/02 04:03:41;;;;;;;;;;;24.60;90.90;;;;;;5068321;28;19916;-72
2022/12/02 04:06:08;;;;;;;;;;;24.60;90.50;;;;;;5069765;28;19913;-70
2022/12/02 04:08:34;;;;;;;;;;;24.60;90.60;;;;;;5065373;28;19913;-72
2022/12/02 04:11:01;;;;;;;;;;;24.60;90.50;;;;;;5064727;28;19916;-71
2022/12/02 04:13:28;;;;;;;;;;;24.60;90.60;;;;;;5065957;28;20027;-70
2022/12/02 04:15:55;;;;;;;;;;;24.70;90.50;;;;;;5070134;28;19936;-69
2022/12/02 04:18:22;;;;;;;;;;;24.80;90.70;;;;;;5067267;28;19924;-72
2022/12/02 04:20:48;;;;;;;;;;;24.80;90.20;;;;;;5069226;28;19920;-70
2022/12/02 04:23:15;;;;;;;;;;;24.70;89.70;;;;;;5066808;28;19913;-70
2022/12/02 04:25:42;;;;;;;;;;;24.80;89.50;;;;;;5064462;28;19916;-73
2022/12/02 04:28:09;;;;;;;;;;;24.80;88.80;;;;;;5068287;28;19912;-71
2022/12/02 04:30:35;;;;;;;;;;;24.90;89.60;;;;;;5065994;28;19913;-71
2022/12/02 04:33:02;;;;;;;;;;;24.90;90.10;;;;;;5073470;28;20355;-71
2022/12/02 04:35:29;;;;;;;;;;;24.90;90.10;;;;;;5062101;28;19912;-71
2022/12/02 04:37:56;;;;;;;;;;;25.00;90.40;;;;;;5071815;28;20374;-69
2022/12/02 04:40:22;;;;;;;;;;;24.80;90.50;;;;;;5073408;28;20009;-72
2022/12/02 04:42:49;;;;;;;;;;;24.70;90.70;;;;;;5072269;28;19919;-71
2022/12/02 04:45:16;;;;;;;;;;;24.70;90.50;;;;;;5071333;28;19912;-70
2022/12/02 04:47:42;;;;;;;;;;;24.80;90.40;;;;;;5062833;28;20445;-70
2022/12/02 04:50:09;;;;;;;;;;;24.60;90.20;;;;;;5069515;28;20382;-71
2022/12/02 04:52:40;;;;;;;;;;;24.50;90.40;;;;;;5064756;28;20275;-71
2022/12/02 04:55:07;;;;;;;;;;;24.40;90.30;;;;;;5070438;28;20375;-71
2022/12/02 04:57:34;;;;;;;;;;;24.40;90.30;;;;;;5068835;28;19912;-68
2022/12/02 05:00:05;;;;;;;;;;;24.30;90.20;;;;;;5072927;28;19924;-73
2022/12/02 05:02:31;;;;;;;;;;;24.40;90.50;;;;;;5071026;28;19913;-73
2022/12/02 05:04:58;;;;;;;;;;;24.90;90.40;;;;;;5072298;28;19917;-70
2022/12/02 05:07:25;;;;;;;;;;;25.10;89.20;;;;;;5054335;28;19935;-68
2022/12/02 05:09:52;;;;;;;;;;;25.30;88.00;;;;;;5071250;28;19917;-70
2022/12/02 05:12:18;;;;;;;;;;;25.60;88.00;;;;;;5070732;28;20341;-71
2022/12/02 05:14:45;;;;;;;;;;;25.50;87.30;;;;;;5071858;28;19957;-71
2022/12/02 05:17:12;;;;;;;;;;;25.40;86.70;;;;;;5071518;28;20386;-69
2022/12/02 05:19:43;;;;;;;;;;;25.40;87.00;;;;;;5069167;28;20465;-69
2022/12/02 05:22:10;;;;;;;;;;;25.20;86.50;;;;;;5069885;28;19927;-70
2022/12/02 05:24:36;;;;;;;;;;;25.00;86.70;;;;;;5066703;28;19967;-70
2022/12/02 05:27:03;;;;;;;;;;;24.90;87.50;;;;;;5070100;28;19912;-69
2022/12/02 05:29:30;;;;;;;;;;;24.90;88.10;;;;;;5064672;28;19927;-70
2022/12/02 05:31:56;;;;;;;;;;;24.90;87.50;;;;;;5053539;28;19913;-70
2022/12/02 05:34:23;;;;;;;;;;;24.90;86.40;;;;;;5070888;28;19916;-71
2022/12/02 05:36:50;;;;;;;;;;;24.80;86.20;;;;;;5067604;28;19917;-69
2022/12/02 05:39:16;;;;;;;;;;;24.90;86.40;;;;;;5071301;28;19927;-69
2022/12/02 05:41:44;;;;;;;;;;;25.10;87.70;;;;;;5070868;28;19912;-71
2022/12/02 05:44:20;;;;;;;;;;;25.30;86.90;;;;;;5069246;28;20325;-70
2022/12/02 05:46:46;;;;;;;;;;;25.50;86.60;;;;;;5063923;28;20450;-70
2022/12/02 05:49:21;;;;;;;;;;;25.40;86.30;;;;;;5065657;28;19917;-70
2022/12/02 05:52:10;;;;;;;;;;;25.40;87.10;;;;;;5066749;28;20007;-73
2022/12/02 05:54:37;;;;;;;;;;;25.30;86.80;;;;;;5054702;28;20023;-70
2022/12/02 05:57:06;;;;;;;;;;;25.20;86.80;;;;;;5071528;28;19923;-70
2022/12/02 05:59:33;;;;;;;;;;;25.00;87.10;;;;;;5071609;28;20019;-72
2022/12/02 06:01:59;;;;;;;;;;;24.80;87.70;;;;;;5071362;28;19913;-70
2022/12/02 06:04:32;;;;;;;;;;;24.60;88.20;;;;;;5067449;28;20007;-72
2022/12/02 06:07:01;;;;;;;;;;;24.60;87.90;;;;;;5064517;28;19986;-70
2022/12/02 06:09:30;;;;;;;;;;;24.50;88.20;;;;;;5068058;28;20264;-68
2022/12/02 06:11:57;;;;;;;;;;;24.40;87.80;;;;;;5065952;28;19924;-69
2022/12/02 06:14:30;;;;;;;;;;;24.20;88.00;;;;;;5071262;28;20375;-72
2022/12/02 06:17:01;;;;;;;;;;;24.20;87.90;;;;;;5070208;28;19912;-71
2022/12/02 06:19:42;;;;;;;;;;;24.10;87.90;;;;;;5070923;28;19924;-69
2022/12/02 06:22:27;;;;;;;;;;;24.10;88.20;;;;;;5072626;28;20382;-70
2022/12/02 06:24:54;;;;;;;;;;;24.00;88.30;;;;;;5078233;28;19916;-71
2022/12/02 06:27:21;;;;;;;;;;;23.90;88.80;;;;;;5068374;28;19913;-70
2022/12/02 06:29:56;;;;;;;;;;;23.80;89.40;;;;;;5064705;28;19917;-70
2022/12/02 06:32:24;;;;;;;;;;;23.90;89.40;;;;;;5064666;28;19924;-71
2022/12/02 06:34:51;;;;;;;;;;;23.80;89.90;;;;;;5063590;28;19951;-70
2022/12/02 06:37:20;;;;;;;;;;;23.70;90.40;;;;;;5070299;28;20006;-71
2022/12/02 06:39:48;;;;;;;;;;;23.70;90.60;;;;;;5066917;28;20012;-72
2022/12/02 06:42:19;;;;;;;;;;;23.60;90.80;;;;;;5053373;28;20333;-70
2022/12/02 06:45:04;;;;;;;;;;;23.50;90.50;;;;;;5064975;28;19912;-71
2022/12/02 06:47:34;;;;;;;;;;;23.50;90.40;;;;;;5063416;28;19916;-71
2022/12/02 06:50:06;;;;;;;;;;;23.40;90.60;;;;;;5069995;28;19924;-71
2022/12/02 06:52:44;;;;;;;;;;;23.30;91.00;;;;;;5068727;28;19912;-70
2022/12/02 06:55:30;;;;;;;;;;;23.10;91.10;;;;;;5070237;28;19952;-70
2022/12/02 06:58:04;;;;;;;;;;;23.00;91.40;;;;;;5066295;28;19912;-70
2022/12/02 07:00:34;;;;;;;;;;;22.90;91.50;;;;;;5066452;28;20317;-70
2022/12/02 07:03:01;;;;;;;;;;;22.90;91.70;;;;;;5066838;28;19973;-67
2022/12/02 07:05:28;;;;;;;;;;;22.80;91.80;;;;;;5070841;28;19912;-70
2022/12/02 07:07:55;;;;;;;;;;;22.70;92.10;;;;;;5069024;28;19930;-67
2022/12/02 07:10:28;;;;;;;;;;;22.60;92.30;;;;;;5069926;28;19916;-70
2022/12/02 07:12:56;;;;;;;;;;;22.50;92.20;;;;;;5070705;28;20025;-70
2022/12/02 07:15:26;;;;;;;;;;;22.40;92.40;;;;;;5069899;28;20318;-72
2022/12/02 07:17:56;;;;;;;;;;;22.30;92.60;;;;;;5068556;28;19913;-69
2022/12/02 07:20:30;;;;;;;;;;;22.20;92.60;;;;;;5063115;28;19977;-71
2022/12/02 07:23:10;;;;;;;;;;;22.30;92.60;;;;;;5071035;28;19916;-68
2022/12/02 07:25:38;;;;;;;;;;;22.30;92.50;;;;;;5053690;28;20271;-70
2022/12/02 07:28:14;;;;;;;;;;;22.30;92.60;;;;;;5069147;28;20374;-69
2022/12/02 07:30:41;;;;;;;;;;;22.30;92.50;;;;;;5069298;28;19921;-70
2022/12/02 07:33:10;;;;;;;;;;;22.20;92.60;;;;;;5066415;28;19971;-70
2022/12/02 07:35:37;;;;;;;;;;;22.20;92.80;;;;;;5061000;28;19924;-71
2022/12/02 07:38:04;;;;;;;;;;;22.20;92.90;;;;;;5068602;28;20102;-68
2022/12/02 07:40:30;;;;;;;;;;;22.10;93.00;;;;;;5069020;28;20251;-67
2022/12/02 07:42:57;;;;;;;;;;;22.00;93.10;;;;;;5066827;28;19912;-71
2022/12/02 07:45:24;;;;;;;;;;;22.00;93.10;;;;;;5069829;28;20200;-70
2022/12/02 07:47:50;;;;;;;;;;;22.00;93.10;;;;;;5061648;28;19920;-69
2022/12/02 07:50:17;;;;;;;;;;;21.90;93.20;;;;;;5062885;28;19912;-71
2022/12/02 07:52:47;;;;;;;;;;;21.90;93.40;;;;;;5065855;28;19920;-71
2022/12/02 07:55:14;;;;;;;;;;;21.80;93.50;;;;;;5070666;28;19975;-70
2022/12/02 07:57:40;;;;;;;;;;;21.80;93.50;;;;;;5067493;28;19916;-71
2022/12/02 08:00:08;;;;;;;;;;;21.70;93.60;;;;;;5068363;28;19965;-70
2022/12/02 08:02:35;;;;;;;;;;;21.60;93.90;;;;;;5053723;28;19960;-68
2022/12/02 08:05:01;;;;;;;;;;;21.40;94.20;;;;;;5053742;28;20033;-71
2022/12/02 08:07:28;;;;;;;;;;;21.30;94.50;;;;;;5064772;28;19912;-69
2022/12/02 08:09:55;;;;;;;;;;;21.30;94.60;;;;;;5066601;28;19960;-71
2022/12/02 08:12:21;;;;;;;;;;;21.20;94.90;;;;;;5059296;28;19929;-69
2022/12/02 08:14:48;;;;;;;;;;;21.20;94.90;;;;;;5070085;28;19920;-71
2022/12/02 08:17:16;;;;;;;;;;;21.10;95.10;;;;;;5069366;28;19939;-68
2022/12/02 08:19:43;;;;;;;;;;;21.10;95.30;;;;;;5073026;28;19936;-69
2022/12/02 08:22:09;;;;;;;;;;;21.10;95.50;;;;;;5072637;28;19962;-70
2022/12/02 08:24:36;;;;;;;;;;;21.00;95.50;;;;;;5074077;28;19909;-71
2022/12/02 08:27:03;;;;;;;;;;;21.00;95.90;;;;;;5070022;28;19950;-71
2022/12/02 08:29:30;;;;;;;;;;;21.00;95.90;;;;;;5069784;28;19951;-69
2022/12/02 08:31:57;;;;;;;;;;;20.90;96.20;;;;;;5073891;28;19919;-73
2022/12/02 08:34:23;;;;;;;;;;;20.90;96.60;;;;;;5068796;28;19916;-71
2022/12/02 08:36:50;;;;;;;;;;;20.90;96.60;;;;;;5068550;28;20054;-70
2022/12/02 08:39:17;;;;;;;;;;;20.80;96.80;;;;;;5061401;28;20422;-71
2022/12/02 08:41:43;;;;;;;;;;;20.80;97.00;;;;;;5069869;28;20013;-71
2022/12/02 08:44:10;;;;;;;;;;;20.60;97.30;;;;;;5069418;28;20355;-71
2022/12/02 08:46:37;;;;;;;;;;;20.60;97.50;;;;;;5064502;28;19920;-72
2022/12/02 08:49:05;;;;;;;;;;;20.50;97.40;;;;;;5071338;28;19916;-71
2022/12/02 08:51:32;;;;;;;;;;;20.50;97.50;;;;;;5068443;28;19923;-72
2022/12/02 08:53:59;;;;;;;;;;;20.50;98.00;;;;;;5070676;28;20027;-71
2022/12/02 08:56:25;;;;;;;;;;;20.50;97.90;;;;;;5070543;28;19954;-69
2022/12/02 08:58:52;;;;;;;;;;;20.40;98.30;;;;;;5065877;28;19927;-69
2022/12/02 09:01:19;;;;;;;;;;;20.40;98.30;;;;;;5066603;28;19913;-69
2022/12/02 09:03:45;;;;;;;;;;;20.30;98.30;;;;;;5055857;28;19920;-72
2022/12/02 09:06:12;;;;;;;;;;;20.10;98.40;;;;;;5067182;28;19923;-70
2022/12/02 09:08:39;;;;;;;;;;;20.10;98.30;;;;;;5064809;28;20420;-69
2022/12/02 09:11:05;;;;;;;;;;;20.00;98.50;;;;;;5070345;28;19947;-70
2022/12/02 09:13:32;;;;;;;;;;;20.00;98.50;;;;;;5072971;28;20314;-70
2022/12/02 09:16:00;;;;;;;;;;;19.90;98.50;;;;;;5071039;28;19927;-70
2022/12/02 09:18:27;;;;;;;;;;;19.90;98.70;;;;;;5064213;28;19935;-71
2022/12/02 09:20:53;;;;;;;;;;;19.70;99.10;;;;;;5071687;28;19917;-72
2022/12/02 09:23:20;;;;;;;;;;;19.80;98.80;;;;;;5072601;28;19920;-72
2022/12/02 09:25:47;;;;;;;;;;;19.70;98.80;;;;;;5071497;28;19928;-70
2022/12/02 09:28:13;;;;;;;;;;;19.60;99.10;;;;;;5072167;28;19917;-71
2022/12/02 09:30:40;;;;;;;;;;;19.40;99.50;;;;;;5071278;28;19916;-75
2022/12/02 09:33:07;;;;;;;;;;;19.30;99.70;;;;;;5072091;28;19924;-73
2022/12/02 09:35:33;;;;;;;;;;;19.30;99.70;;;;;;5058685;28;19917;-71
2022/12/02 09:38:00;;;;;;;;;;;19.10;99.90;;;;;;5071133;28;19923;-70
2022/12/02 09:40:27;;;;;;;;;;;19.10;99.90;;;;;;5073039;28;19947;-71
2022/12/02 09:42:53;;;;;;;;;;;19.00;99.90;;;;;;5070316;28;19920;-70
2022/12/02 09:45:20;;;;;;;;;;;18.90;99.90;;;;;;5071732;28;19920;-71
2022/12/02 09:47:47;;;;;;;;;;;18.80;99.90;;;;;;5069047;28;19913;-69
2022/12/02 09:50:14;;;;;;;;;;;18.70;99.90;;;;;;5064765;28;20483;-72
2022/12/02 09:52:41;;;;;;;;;;;18.70;99.90;;;;;;5067488;28;19913;-72
2022/12/02 09:55:11;;;;;;;;;;;18.60;99.90;;;;;;5064157;28;19920;-72
2022/12/02 09:57:38;;;;;;;;;;;18.50;99.90;;;;;;5070364;28;19917;-70
2022/12/02 10:00:07;;;;;;;;;;;18.40;99.90;;;;;;5070959;28;19927;-72
2022/12/02 10:02:37;;;;;;;;;;;18.40;99.90;;;;;;5068509;28;19912;-74
2022/12/02 10:05:06;;;;;;;;;;;18.40;99.90;;;;;;5076275;28;19917;-73
2022/12/02 10:07:33;;;;;;;;;;;18.30;99.90;;;;;;5054234;28;20326;-74
2022/12/02 10:10:00;;;;;;;;;;;18.20;99.90;;;;;;5074732;28;19920;-71
2022/12/02 10:12:27;;;;;;;;;;;18.10;99.90;;;;;;5066357;28;19930;-74
2022/12/02 10:14:58;;;;;;;;;;;18.10;99.90;;;;;;5062872;28;19919;-75
2022/12/02 10:17:24;;;;;;;;;;;18.00;99.90;;;;;;5065038;28;19919;-73
2022/12/02 10:19:51;;;;;;;;;;;17.90;99.90;;;;;;5068273;28;19931;-72
2022/12/02 10:22:19;;;;;;;;;;;17.90;99.90;;;;;;5043368;28;20393;-76
2022/12/02 10:24:47;;;;;;;;;;;17.80;99.90;;;;;;5071085;28;19913;-73
2022/12/02 10:27:24;;;;;;;;;;;17.80;99.90;;;;;;5071229;28;19912;-71
2022/12/02 10:29:51;;;;;;;;;;;17.70;99.90;;;;;;5070228;28;19920;-71
2022/12/02 10:32:26;;;;;;;;;;;17.70;99.90;;;;;;5065745;28;20611;-72
2022/12/02 10:35:14;;;;;;;;;;;17.60;99.90;;;;;;5065316;28;19972;-72
2022/12/02 10:37:40;;;;;;;;;;;17.60;99.90;;;;;;5048147;28;19920;-71
2022/12/02 10:40:07;;;;;;;;;;;17.60;99.90;;;;;;5060324;28;19924;-70
2022/12/02 10:42:34;;;;;;;;;;;17.50;99.90;;;;;;5066506;28;19920;-72
2022/12/02 10:45:18;;;;;;;;;;;17.60;99.90;;;;;;5070497;28;20645;-71
2022/12/02 10:47:45;;;;;;;;;;;17.50;99.90;;;;;;5069961;28;19920;-73
2022/12/02 10:50:17;;;;;;;;;;;17.60;99.90;;;;;;5063776;28;19924;-74
2022/12/02 10:52:48;;;;;;;;;;;17.60;99.90;;;;;;5069227;28;19923;-72
2022/12/02 10:55:16;;;;;;;;;;;17.50;99.90;;;;;;5069421;28;19982;-72
2022/12/02 10:57:43;;;;;;;;;;;17.50;99.90;;;;;;5068905;28;19912;-71
2022/12/02 11:00:27;;;;;;;;;;;17.50;99.90;;;;;;5066166;28;19928;-73
2022/12/02 11:02:55;;;;;;;;;;;17.50;99.90;;;;;;5063016;28;20011;-72
2022/12/02 11:05:23;;;;;;;;;;;17.50;99.90;;;;;;5063609;28;19970;-72
2022/12/02 11:07:51;;;;;;;;;;;17.50;99.90;;;;;;5062896;28;19916;-72
2022/12/02 11:10:19;;;;;;;;;;;17.50;99.90;;;;;;5058567;28;19927;-72
2022/12/02 11:12:49;;;;;;;;;;;17.40;99.90;;;;;;5066729;28;19960;-73
2022/12/02 11:15:33;;;;;;;;;;;17.40;99.90;;;;;;5065295;28;19912;-71
2022/12/02 11:18:00;;;;;;;;;;;17.40;99.90;;;;;;5061396;28;19921;-71
2022/12/02 11:20:31;;;;;;;;;;;17.30;99.90;;;;;;5066986;28;19970;-71
2022/12/02 11:22:58;;;;;;;;;;;17.30;99.90;;;;;;5061040;28;19912;-73
2022/12/02 11:25:43;;;;;;;;;;;17.20;99.90;;;;;;5063710;28;19990;-70
2022/12/02 11:28:30;;;;;;;;;;;17.20;99.90;;;;;;5062155;28;19924;-70
2022/12/02 11:31:09;;;;;;;;;;;17.10;99.90;;;;;;5060171;28;20065;-72
2022/12/02 11:33:39;;;;;;;;;;;17.10;99.90;;;;;;5062377;28;19924;-71
2022/12/02 11:36:08;;;;;;;;;;;17.00;99.90;;;;;;5068202;28;19982;-70
2022/12/02 11:38:57;;;;;;;;;;;16.90;99.90;;;;;;5058459;28;19920;-71
2022/12/02 11:41:25;;;;;;;;;;;16.90;99.90;;;;;;5066838;28;20397;-72
2022/12/02 11:43:52;;;;;;;;;;;16.90;99.90;;;;;;5071832;28;19923;-73
2022/12/02 11:46:20;;;;;;;;;;;16.80;99.90;;;;;;5068581;28;20394;-72
2022/12/02 11:48:53;;;;;;;;;;;16.70;99.90;;;;;;5071131;28;20293;-72
2022/12/02 11:51:31;;;;;;;;;;;16.70;99.90;;;;;;5067515;28;19912;-73
2022/12/02 11:53:58;;;;;;;;;;;16.70;99.90;;;;;;5063684;28;19916;-75
2022/12/02 11:56:27;;;;;;;;;;;16.70;99.90;;;;;;5069963;28;19913;-73
2022/12/02 11:58:53;;;;;;;;;;;16.60;99.90;;;;;;5065502;28;19920;-73
2022/12/02 12:01:20;;;;;;;;;;;16.60;99.90;;;;;;5071820;28;19916;-72
2022/12/02 12:03:50;;;;;;;;;;;16.60;99.90;;;;;;5067277;28;20035;-71
2022/12/02 12:06:18;;;;;;;;;;;16.50;99.90;;;;;;5068496;28;19912;-71
2022/12/02 12:08:53;;;;;;;;;;;16.50;99.90;;;;;;5065369;28;20275;-73
2022/12/02 12:11:20;;;;;;;;;;;16.50;99.90;;;;;;5071825;28;19913;-74
2022/12/02 12:14:17;;;;;;;;;;;16.40;99.90;;;;;;5070339;28;19925;-71
2022/12/02 12:16:48;;;;;;;;;;;16.40;99.90;;;;;;5050912;28;19955;-72
2022/12/02 12:19:15;;;;;;;;;;;16.40;99.90;;;;;;5070675;28;20378;-71
2022/12/02 12:21:46;;;;;;;;;;;16.40;99.90;;;;;;5054165;28;19909;-76
2022/12/02 12:24:20;;;;;;;;;;;16.40;99.90;;;;;;5070960;28;19940;-75
2022/12/02 12:27:04;;;;;;;;;;;16.30;99.90;;;;;;5072987;28;19991;-73
2022/12/02 12:29:33;;;;;;;;;;;16.30;99.90;;;;;;5072097;28;19916;-75
2022/12/02 12:32:00;;;;;;;;;;;16.20;99.90;;;;;;5062978;28;19920;-73
2022/12/02 12:34:28;;;;;;;;;;;16.20;99.90;;;;;;5062865;28;20014;-71
2022/12/02 12:36:55;;;;;;;;;;;16.20;99.90;;;;;;5062774;28;19928;-70
2022/12/02 12:39:22;;;;;;;;;;;16.10;99.90;;;;;;5060247;28;19921;-71
2022/12/02 12:41:49;;;;;;;;;;;16.10;99.90;;;;;;5061546;28;19994;-71
2022/12/02 12:44:16;;;;;;;;;;;16.10;99.90;;;;;;5060532;28;19919;-71
2022/12/02 12:46:43;;;;;;;;;;;16.10;99.90;;;;;;5063186;28;19917;-71
2022/12/02 12:49:10;;;;;;;;;;;16.10;99.90;;;;;;5070320;28;19916;-72
2022/12/02 12:51:37;;;;;;;;;;;16.00;99.90;;;;;;5063450;28;19913;-72
2022/12/02 12:54:04;;;;;;;;;;;16.00;99.90;;;;;;5066549;28;20020;-72
2022/12/02 12:56:31;;;;;;;;;;;15.90;99.90;;;;;;5062845;28;19951;-73
2022/12/02 12:59:00;;;;;;;;;;;15.90;99.90;;;;;;5065002;28;20015;-74
2022/12/02 13:01:27;;;;;;;;;;;15.90;99.90;;;;;;5064297;28;19909;-73
2022/12/02 13:03:54;;;;;;;;;;;15.90;99.90;;;;;;5067167;28;19912;-71
2022/12/02 13:06:20;;;;;;;;;;;15.80;99.90;;;;;;5071019;28;20355;-71
2022/12/02 13:08:47;;;;;;;;;;;15.80;99.90;;;;;;5071605;28;19918;-72
2022/12/02 13:11:14;;;;;;;;;;;15.80;99.90;;;;;;5066253;28;20011;-71
2022/12/02 13:13:40;;;;;;;;;;;15.80;99.90;;;;;;5059001;28;19928;-72
2022/12/02 13:16:07;;;;;;;;;;;15.70;99.90;;;;;;5069069;28;20363;-72
2022/12/02 13:18:34;;;;;;;;;;;15.70;99.90;;;;;;5058065;28;20015;-71
2022/12/02 13:21:00;;;;;;;;;;;15.70;99.90;;;;;;5059501;28;19927;-72
2022/12/02 13:23:27;;;;;;;;;;;15.70;99.90;;;;;;5062951;28;20710;-71
2022/12/02 13:25:54;;;;;;;;;;;15.60;99.90;;;;;;5070989;28;19916;-71
2022/12/02 13:28:20;;;;;;;;;;;15.60;99.90;;;;;;5068862;28;19917;-72
2022/12/02 13:30:50;;;;;;;;;;;15.60;99.90;;;;;;5072279;28;19922;-73
2022/12/02 13:33:17;;;;;;;;;;;15.60;99.90;;;;;;5057068;28;19963;-71
2022/12/02 13:35:44;;;;;;;;;;;15.60;99.90;;;;;;5067884;28;19920;-71
2022/12/02 13:38:10;;;;;;;;;;;15.60;99.90;;;;;;5085540;28;19916;-72
2022/12/02 13:40:37;;;;;;;;;;;15.70;99.90;;;;;;5077527;28;19916;-72
2022/12/02 13:43:04;;;;;;;;;;;15.70;99.90;;;;;;5073713;28;20436;-73
2022/12/02 13:45:30;;;;;;;;;;;15.70;99.90;;;;;;5069736;28;20396;-72
2022/12/02 13:47:58;;;;;;;;;;;15.70;99.90;;;;;;5072132;28;20006;-73
2022/12/02 13:50:24;;;;;;;;;;;15.70;99.90;;;;;;5070159;28;19913;-75
2022/12/02 13:52:51;;;;;;;;;;;15.70;99.90;;;;;;5073118;28;19916;-74
2022/12/02 13:55:18;;;;;;;;;;;15.70;99.90;;;;;;5071480;28;19919;-72
2022/12/02 13:57:44;;;;;;;;;;;15.70;99.90;;;;;;5066916;28;19916;-73
2022/12/02 14:00:12;;;;;;;;;;;15.70;99.90;;;;;;5071558;28;19964;-72
2022/12/02 14:02:39;;;;;;;;;;;15.60;99.90;;;;;;5069349;28;19913;-71
2022/12/02 14:05:05;;;;;;;;;;;15.60;99.90;;;;;;5069072;28;19935;-72
2022/12/02 14:07:32;;;;;;;;;;;15.60;99.90;;;;;;5062095;28;19913;-72
2022/12/02 14:09:59;;;;;;;;;;;15.50;99.90;;;;;;5042403;28;19917;-73
2022/12/02 14:12:25;;;;;;;;;;;15.50;99.90;;;;;;5061523;28;19943;-71
2022/12/02 14:14:52;;;;;;;;;;;15.50;99.90;;;;;;5059856;28;19982;-73
2022/12/02 14:17:19;;;;;;;;;;;15.40;99.90;;;;;;5071341;28;20282;-71
2022/12/02 14:19:45;;;;;;;;;;;15.40;99.90;;;;;;5067354;28;19971;-72
2022/12/02 14:22:12;;;;;;;;;;;15.40;99.90;;;;;;5065803;28;19982;-72
2022/12/02 14:24:39;;;;;;;;;;;15.40;99.90;;;;;;5055003;28;20275;-71
2022/12/02 14:27:05;;;;;;;;;;;15.30;99.90;;;;;;5067329;28;19916;-72